sensor_id;sensor_type;location;lat;lon;timestamp;temperature;humidity
24011;DHT22;12217;50.792;4.372;2024-02-04T00:00:34;10.70;99.90
24011;DHT22;12217;50.792;4.372;2024-02-04T00:03:00;10.70;99.90
24011;DHT22;12217;50.792;4.372;2024-02-04T00:05:26;10.80;99.90
24011;DHT22;12217;50.792;4.372;2024-02-04T00:07:51;10.80;99.90
24011;DHT22;12217;50.792;4.372;2024-02-04T00:10:17;10.90;99.90
24011;DHT22;12217;50.792;4.372;2024-02-04T00:12:44;10.80;99.90
24011;DHT22;12217;50.792;4.372;2024-02-04T00:15:09;10.80;99.90
24011;DHT22;12217;50.792;4.372;2024-02-04T00:17:35;10.80;99.90
24011;DHT22;12217;50.792;4.372;2024-02-04T00:20:02;10.80;99.90
24011;DHT22;12217;50.792;4.372;2024-02-04T00:22:31;10.80;99.90
24011;DHT22;12217;50.792;4.372;2024-02-04T00:24:57;10.70;99.90
24011;DHT22;12217;50.792;4.372;2024-02-04T00:27:27;10.80;99.90
24011;DHT22;12217;50.792;4.372;2024-02-04T00:29:53;10.70;99.90
24011;DHT22;12217;50.792;4.372;2024-02-04T00:32:18;10.80;99.90
24011;DHT22;12217;50.792;4.372;2024-02-04T00:34:44;10.80;99.90
24011;DHT22;12217;50.792;4.372;2024-02-04T00:37:09;10.90;99.90
24011;DHT22;12217;50.792;4.372;2024-02-04T00:39:35;10.90;99.90
24011;DHT22;12217;50.792;4.372;2024-02-04T00:42:01;10.90;99.90
24011;DHT22;12217;50.792;4.372;2024-02-04T00:44:26;10.90;99.90
24011;DHT22;12217;50.792;4.372;2024-02-04T00:46:52;10.90;99.90
24011;DHT22;12217;50.792;4.372;2024-02-04T00:49:18;10.90;99.90
24011;DHT22;12217;50.792;4.372;2024-02-04T00:51:43;10.70;99.90
24011;DHT22;12217;50.792;4.372;2024-02-04T00:54:09;10.60;99.90
24011;DHT22;12217;50.792;4.372;2024-02-04T00:56:35;10.70;99.90
24011;DHT22;12217;50.792;4.372;2024-02-04T00:59:03;10.70;99.90
24011;DHT22;12217;50.792;4.372;2024-02-04T01:01:29;10.70;99.90
24011;DHT22;12217;50.792;4.372;2024-02-04T01:03:54;10.70;99.90
24011;DHT22;12217;50.792;4.372;2024-02-04T01:06:20;10.70;99.90
24011;DHT22;12217;50.792;4.372;2024-02-04T01:08:45;10.80;99.90
24011;DHT22;12217;50.792;4.372;2024-02-04T01:11:11;10.90;99.90
24011;DHT22;12217;50.792;4.372;2024-02-04T01:13:37;10.80;99.90
24011;DHT22;12217;50.792;4.372;2024-02-04T01:16:03;10.90;99.90
24011;DHT22;12217;50.792;4.372;2024-02-04T01:18:28;10.90;99.90
24011;DHT22;12217;50.792;4.372;2024-02-04T01:20:55;10.70;99.90
24011;DHT22;12217;50.792;4.372;2024-02-04T01:23:21;10.70;99.90
24011;DHT22;12217;50.792;4.372;2024-02-04T01:25:47;10.80;99.90
24011;DHT22;12217;50.792;4.372;2024-02-04T01:28:13;10.70;99.90
24011;DHT22;12217;50.792;4.372;2024-02-04T01:30:38;10.80;99.90
24011;DHT22;12217;50.792;4.372;2024-02-04T01:33:04;10.80;99.90
24011;DHT22;12217;50.792;4.372;2024-02-04T01:35:29;10.70;99.90
24011;DHT22;12217;50.792;4.372;2024-02-04T01:37:55;10.70;99.90
24011;DHT22;12217;50.792;4.372;2024-02-04T01:40:21;10.70;99.90
24011;DHT22;12217;50.792;4.372;2024-02-04T01:42:46;10.70;99.90
24011;DHT22;12217;50.792;4.372;2024-02-04T01:45:12;10.80;99.90
24011;DHT22;12217;50.792;4.372;2024-02-04T01:47:38;10.70;99.90
24011;DHT22;12217;50.792;4.372;2024-02-04T01:50:04;10.70;99.90
24011;DHT22;12217;50.792;4.372;2024-02-04T01:52:32;10.70;99.90
24011;DHT22;12217;50.792;4.372;2024-02-04T01:54:59;10.80;99.90
24011;DHT22;12217;50.792;4.372;2024-02-04T01:57:26;10.80;99.90
24011;DHT22;12217;50.792;4.372;2024-02-04T01:59:52;10.80;99.90
24011;DHT22;12217;50.792;4.372;2024-02-04T02:02:20;10.80;99.90
24011;DHT22;12217;50.792;4.372;2024-02-04T02:04:46;10.70;99.90
24011;DHT22;12217;50.792;4.372;2024-02-04T02:07:13;10.70;99.90
24011;DHT22;12217;50.792;4.372;2024-02-04T02:09:42;10.90;99.90
24011;DHT22;12217;50.792;4.372;2024-02-04T02:12:11;11.00;99.90
24011;DHT22;12217;50.792;4.372;2024-02-04T02:14:41;11.00;99.90
24011;DHT22;12217;50.792;4.372;2024-02-04T02:17:11;11.00;99.90
24011;DHT22;12217;50.792;4.372;2024-02-04T02:22:45;10.90;99.90
24011;DHT22;12217;50.792;4.372;2024-02-04T02:25:14;10.90;99.90
24011;DHT22;12217;50.792;4.372;2024-02-04T02:27:47;10.90;99.90
24011;DHT22;12217;50.792;4.372;2024-02-04T02:30:13;10.90;99.90
24011;DHT22;12217;50.792;4.372;2024-02-04T02:32:40;11.10;99.90
24011;DHT22;12217;50.792;4.372;2024-02-04T02:35:05;10.90;99.90
24011;DHT22;12217;50.792;4.372;2024-02-04T02:40:30;10.80;99.90
24011;DHT22;12217;50.792;4.372;2024-02-04T02:43:02;10.80;99.90
24011;DHT22;12217;50.792;4.372;2024-02-04T02:45:28;10.80;99.90
24011;DHT22;12217;50.792;4.372;2024-02-04T02:47:54;10.90;99.90
24011;DHT22;12217;50.792;4.372;2024-02-04T02:50:21;11.00;99.90
24011;DHT22;12217;50.792;4.372;2024-02-04T02:52:47;10.80;99.90
24011;DHT22;12217;50.792;4.372;2024-02-04T02:55:13;10.90;99.90
24011;DHT22;12217;50.792;4.372;2024-02-04T02:57:38;10.90;99.90
24011;DHT22;12217;50.792;4.372;2024-02-04T03:00:04;11.00;99.90
24011;DHT22;12217;50.792;4.372;2024-02-04T03:02:32;11.00;99.90
24011;DHT22;12217;50.792;4.372;2024-02-04T03:04:57;11.10;99.90
24011;DHT22;12217;50.792;4.372;2024-02-04T03:07:23;11.00;99.90
24011;DHT22;12217;50.792;4.372;2024-02-04T03:09:49;11.00;99.90
24011;DHT22;12217;50.792;4.372;2024-02-04T03:12:14;11.00;99.90
24011;DHT22;12217;50.792;4.372;2024-02-04T03:14:40;10.90;99.90
24011;DHT22;12217;50.792;4.372;2024-02-04T03:17:06;11.00;99.90
24011;DHT22;12217;50.792;4.372;2024-02-04T03:19:31;11.00;99.90
24011;DHT22;12217;50.792;4.372;2024-02-04T03:21:57;11.00;99.90
24011;DHT22;12217;50.792;4.372;2024-02-04T03:24:23;10.90;99.90
24011;DHT22;12217;50.792;4.372;2024-02-04T03:26:48;10.90;99.90
24011;DHT22;12217;50.792;4.372;2024-02-04T03:29:14;10.90;99.90
24011;DHT22;12217;50.792;4.372;2024-02-04T03:31:39;11.00;99.90
24011;DHT22;12217;50.792;4.372;2024-02-04T03:34:05;11.00;99.90
24011;DHT22;12217;50.792;4.372;2024-02-04T03:36:31;11.00;99.90
24011;DHT22;12217;50.792;4.372;2024-02-04T03:38:57;11.00;99.90
24011;DHT22;12217;50.792;4.372;2024-02-04T03:41:23;11.00;99.90
24011;DHT22;12217;50.792;4.372;2024-02-04T03:43:48;11.00;99.90
24011;DHT22;12217;50.792;4.372;2024-02-04T03:46:15;11.10;99.90
24011;DHT22;12217;50.792;4.372;2024-02-04T03:48:41;11.10;99.90
24011;DHT22;12217;50.792;4.372;2024-02-04T03:51:06;10.90;99.90
24011;DHT22;12217;50.792;4.372;2024-02-04T03:53:32;10.90;99.90
24011;DHT22;12217;50.792;4.372;2024-02-04T03:55:58;10.90;99.90
24011;DHT22;12217;50.792;4.372;2024-02-04T03:58:24;10.90;99.90
24011;DHT22;12217;50.792;4.372;2024-02-04T04:00:57;10.90;99.90
24011;DHT22;12217;50.792;4.372;2024-02-04T04:03:23;10.80;99.90
24011;DHT22;12217;50.792;4.372;2024-02-04T04:05:52;10.80;99.90
24011;DHT22;12217;50.792;4.372;2024-02-04T04:08:18;10.80;99.90
24011;DHT22;12217;50.792;4.372;2024-02-04T04:10:45;10.90;99.90
24011;DHT22;12217;50.792;4.372;2024-02-04T04:13:11;10.90;99.90
24011;DHT22;12217;50.792;4.372;2024-02-04T04:15:37;10.90;99.90
24011;DHT22;12217;50.792;4.372;2024-02-04T04:18:03;11.00;99.90
24011;DHT22;12217;50.792;4.372;2024-02-04T04:20:29;11.00;99.90
24011;DHT22;12217;50.792;4.372;2024-02-04T04:22:55;10.90;99.90
24011;DHT22;12217;50.792;4.372;2024-02-04T04:25:20;11.00;99.90
24011;DHT22;12217;50.792;4.372;2024-02-04T04:27:46;11.00;99.90
24011;DHT22;12217;50.792;4.372;2024-02-04T04:30:12;10.90;99.90
24011;DHT22;12217;50.792;4.372;2024-02-04T04:32:37;10.90;99.90
24011;DHT22;12217;50.792;4.372;2024-02-04T04:35:03;10.90;99.90
24011;DHT22;12217;50.792;4.372;2024-02-04T04:37:29;10.70;99.90
24011;DHT22;12217;50.792;4.372;2024-02-04T04:39:55;10.70;99.90
24011;DHT22;12217;50.792;4.372;2024-02-04T04:42:20;10.80;99.90
24011;DHT22;12217;50.792;4.372;2024-02-04T04:44:46;10.80;99.90
24011;DHT22;12217;50.792;4.372;2024-02-04T04:47:12;10.90;99.90
24011;DHT22;12217;50.792;4.372;2024-02-04T04:49:37;10.90;99.90
24011;DHT22;12217;50.792;4.372;2024-02-04T04:52:03;11.00;99.90
24011;DHT22;12217;50.792;4.372;2024-02-04T04:54:29;10.90;99.90
24011;DHT22;12217;50.792;4.372;2024-02-04T04:56:55;11.00;99.90
24011;DHT22;12217;50.792;4.372;2024-02-04T04:59:20;10.80;99.90
24011;DHT22;12217;50.792;4.372;2024-02-04T05:01:49;10.80;99.90
24011;DHT22;12217;50.792;4.372;2024-02-04T05:04:16;10.80;99.90
24011;DHT22;12217;50.792;4.372;2024-02-04T05:06:42;10.80;99.90
24011;DHT22;12217;50.792;4.372;2024-02-04T05:09:08;10.90;99.90
24011;DHT22;12217;50.792;4.372;2024-02-04T05:11:34;10.90;99.90
24011;DHT22;12217;50.792;4.372;2024-02-04T05:14:00;11.00;99.90
24011;DHT22;12217;50.792;4.372;2024-02-04T05:16:25;11.00;99.90
24011;DHT22;12217;50.792;4.372;2024-02-04T05:18:51;10.90;99.90
24011;DHT22;12217;50.792;4.372;2024-02-04T05:21:16;10.80;99.90
24011;DHT22;12217;50.792;4.372;2024-02-04T05:23:42;10.90;99.90
24011;DHT22;12217;50.792;4.372;2024-02-04T05:26:08;11.00;99.90
24011;DHT22;12217;50.792;4.372;2024-02-04T05:28:33;11.00;99.90
24011;DHT22;12217;50.792;4.372;2024-02-04T05:31:01;11.00;99.90
24011;DHT22;12217;50.792;4.372;2024-02-04T05:33:27;11.00;99.90
24011;DHT22;12217;50.792;4.372;2024-02-04T05:35:53;11.00;99.90
24011;DHT22;12217;50.792;4.372;2024-02-04T05:38:18;11.00;99.90
24011;DHT22;12217;50.792;4.372;2024-02-04T05:40:44;11.00;99.90
24011;DHT22;12217;50.792;4.372;2024-02-04T05:43:10;10.90;99.90
24011;DHT22;12217;50.792;4.372;2024-02-04T05:45:37;10.80;99.90
24011;DHT22;12217;50.792;4.372;2024-02-04T05:48:04;10.90;99.90
24011;DHT22;12217;50.792;4.372;2024-02-04T05:50:30;10.90;99.90
24011;DHT22;12217;50.792;4.372;2024-02-04T05:52:55;10.80;99.90
24011;DHT22;12217;50.792;4.372;2024-02-04T05:55:21;10.70;99.90
24011;DHT22;12217;50.792;4.372;2024-02-04T05:57:47;10.80;99.90
24011;DHT22;12217;50.792;4.372;2024-02-04T06:00:15;10.80;99.90
24011;DHT22;12217;50.792;4.372;2024-02-04T06:02:41;10.90;99.90
24011;DHT22;12217;50.792;4.372;2024-02-04T06:05:09;10.90;99.90
24011;DHT22;12217;50.792;4.372;2024-02-04T06:07:35;10.80;99.90
24011;DHT22;12217;50.792;4.372;2024-02-04T06:10:00;10.70;99.90
24011;DHT22;12217;50.792;4.372;2024-02-04T06:12:29;10.80;99.90
24011;DHT22;12217;50.792;4.372;2024-02-04T06:14:54;10.80;99.90
24011;DHT22;12217;50.792;4.372;2024-02-04T06:17:20;10.90;99.90
24011;DHT22;12217;50.792;4.372;2024-02-04T06:19:46;10.90;99.90
24011;DHT22;12217;50.792;4.372;2024-02-04T06:22:11;10.90;99.90
24011;DHT22;12217;50.792;4.372;2024-02-04T06:24:37;10.90;99.90
24011;DHT22;12217;50.792;4.372;2024-02-04T06:27:04;10.70;99.90
24011;DHT22;12217;50.792;4.372;2024-02-04T06:29:30;10.70;99.90
24011;DHT22;12217;50.792;4.372;2024-02-04T06:31:56;10.80;99.90
24011;DHT22;12217;50.792;4.372;2024-02-04T06:34:21;10.70;99.90
24011;DHT22;12217;50.792;4.372;2024-02-04T06:36:47;10.80;99.90
24011;DHT22;12217;50.792;4.372;2024-02-04T06:39:13;10.80;99.90
24011;DHT22;12217;50.792;4.372;2024-02-04T06:41:39;10.60;99.90
24011;DHT22;12217;50.792;4.372;2024-02-04T06:44:05;10.50;99.90
24011;DHT22;12217;50.792;4.372;2024-02-04T06:46:31;10.50;99.90
24011;DHT22;12217;50.792;4.372;2024-02-04T06:48:56;10.60;99.90
24011;DHT22;12217;50.792;4.372;2024-02-04T06:51:22;10.70;99.90
24011;DHT22;12217;50.792;4.372;2024-02-04T06:53:48;10.70;99.90
24011;DHT22;12217;50.792;4.372;2024-02-04T06:56:14;10.80;99.90
24011;DHT22;12217;50.792;4.372;2024-02-04T06:58:41;10.90;99.90
24011;DHT22;12217;50.792;4.372;2024-02-04T07:01:07;10.90;99.90
24011;DHT22;12217;50.792;4.372;2024-02-04T07:03:33;10.90;99.90
24011;DHT22;12217;50.792;4.372;2024-02-04T07:05:59;11.00;99.90
24011;DHT22;12217;50.792;4.372;2024-02-04T07:08:25;11.00;99.90
24011;DHT22;12217;50.792;4.372;2024-02-04T07:10:51;10.80;99.90
24011;DHT22;12217;50.792;4.372;2024-02-04T07:13:18;10.80;99.90
24011;DHT22;12217;50.792;4.372;2024-02-04T07:15:43;10.90;99.90
24011;DHT22;12217;50.792;4.372;2024-02-04T07:18:09;10.90;99.90
24011;DHT22;12217;50.792;4.372;2024-02-04T07:20:35;10.90;99.90
24011;DHT22;12217;50.792;4.372;2024-02-04T07:23:01;10.90;99.90
24011;DHT22;12217;50.792;4.372;2024-02-04T07:25:29;10.90;99.90
24011;DHT22;12217;50.792;4.372;2024-02-04T07:27:55;10.80;99.90
24011;DHT22;12217;50.792;4.372;2024-02-04T07:30:22;10.80;99.90
24011;DHT22;12217;50.792;4.372;2024-02-04T07:32:48;10.80;99.90
24011;DHT22;12217;50.792;4.372;2024-02-04T07:35:13;10.90;99.90
24011;DHT22;12217;50.792;4.372;2024-02-04T07:37:39;10.80;99.90
24011;DHT22;12217;50.792;4.372;2024-02-04T07:40:05;10.90;99.90
24011;DHT22;12217;50.792;4.372;2024-02-04T07:42:31;10.80;99.90
24011;DHT22;12217;50.792;4.372;2024-02-04T07:44:57;10.80;99.90
24011;DHT22;12217;50.792;4.372;2024-02-04T07:47:23;10.80;99.90
24011;DHT22;12217;50.792;4.372;2024-02-04T07:49:49;10.80;99.90
24011;DHT22;12217;50.792;4.372;2024-02-04T07:52:15;10.70;99.90
24011;DHT22;12217;50.792;4.372;2024-02-04T07:54:41;10.80;99.90
24011;DHT22;12217;50.792;4.372;2024-02-04T07:57:09;10.80;99.90
24011;DHT22;12217;50.792;4.372;2024-02-04T07:59:34;10.80;99.90
24011;DHT22;12217;50.792;4.372;2024-02-04T08:02:01;10.90;99.90
24011;DHT22;12217;50.792;4.372;2024-02-04T08:04:26;10.80;99.90
24011;DHT22;12217;50.792;4.372;2024-02-04T08:06:53;10.90;99.90
24011;DHT22;12217;50.792;4.372;2024-02-04T08:09:19;10.80;99.90
24011;DHT22;12217;50.792;4.372;2024-02-04T08:11:44;10.90;99.90
24011;DHT22;12217;50.792;4.372;2024-02-04T08:14:10;10.90;99.90
24011;DHT22;12217;50.792;4.372;2024-02-04T08:16:35;10.80;99.90
24011;DHT22;12217;50.792;4.372;2024-02-04T08:19:01;10.90;99.90
24011;DHT22;12217;50.792;4.372;2024-02-04T08:21:27;11.00;99.90
24011;DHT22;12217;50.792;4.372;2024-02-04T08:23:53;11.10;99.90
24011;DHT22;12217;50.792;4.372;2024-02-04T08:26:19;11.10;99.90
24011;DHT22;12217;50.792;4.372;2024-02-04T08:28:44;11.00;99.90
24011;DHT22;12217;50.792;4.372;2024-02-04T08:31:10;11.10;99.90
24011;DHT22;12217;50.792;4.372;2024-02-04T08:33:36;11.20;99.90
24011;DHT22;12217;50.792;4.372;2024-02-04T08:36:02;11.10;99.90
24011;DHT22;12217;50.792;4.372;2024-02-04T08:38:28;11.20;99.90
24011;DHT22;12217;50.792;4.372;2024-02-04T08:40:53;11.10;99.90
24011;DHT22;12217;50.792;4.372;2024-02-04T08:43:19;11.00;99.90
24011;DHT22;12217;50.792;4.372;2024-02-04T08:45:44;11.00;99.90
24011;DHT22;12217;50.792;4.372;2024-02-04T08:48:10;10.90;99.90
24011;DHT22;12217;50.792;4.372;2024-02-04T08:50:36;10.90;99.90
24011;DHT22;12217;50.792;4.372;2024-02-04T08:53:01;10.90;99.90
24011;DHT22;12217;50.792;4.372;2024-02-04T08:55:27;11.00;99.90
24011;DHT22;12217;50.792;4.372;2024-02-04T08:57:52;11.00;99.90
24011;DHT22;12217;50.792;4.372;2024-02-04T09:00:19;11.10;99.90
24011;DHT22;12217;50.792;4.372;2024-02-04T09:02:45;11.10;99.90
24011;DHT22;12217;50.792;4.372;2024-02-04T09:05:12;11.10;99.90
24011;DHT22;12217;50.792;4.372;2024-02-04T09:07:37;11.20;99.90
24011;DHT22;12217;50.792;4.372;2024-02-04T09:10:04;11.30;99.90
24011;DHT22;12217;50.792;4.372;2024-02-04T09:12:30;11.30;99.90
24011;DHT22;12217;50.792;4.372;2024-02-04T09:14:56;11.30;99.90
24011;DHT22;12217;50.792;4.372;2024-02-04T09:17:21;11.50;99.90
24011;DHT22;12217;50.792;4.372;2024-02-04T09:19:47;11.30;99.90
24011;DHT22;12217;50.792;4.372;2024-02-04T09:22:13;11.20;99.90
24011;DHT22;12217;50.792;4.372;2024-02-04T09:24:38;11.20;99.90
24011;DHT22;12217;50.792;4.372;2024-02-04T09:27:04;11.20;99.90
24011;DHT22;12217;50.792;4.372;2024-02-04T09:29:30;11.20;99.90
24011;DHT22;12217;50.792;4.372;2024-02-04T09:31:55;11.20;99.90
24011;DHT22;12217;50.792;4.372;2024-02-04T09:34:21;11.20;99.90
24011;DHT22;12217;50.792;4.372;2024-02-04T09:36:47;11.20;99.90
24011;DHT22;12217;50.792;4.372;2024-02-04T09:39:12;11.20;99.90
24011;DHT22;12217;50.792;4.372;2024-02-04T09:41:38;11.10;99.90
24011;DHT22;12217;50.792;4.372;2024-02-04T09:44:04;11.10;99.90
24011;DHT22;12217;50.792;4.372;2024-02-04T09:46:31;11.20;99.90
24011;DHT22;12217;50.792;4.372;2024-02-04T09:48:58;11.30;99.90
24011;DHT22;12217;50.792;4.372;2024-02-04T09:51:26;11.30;99.90
24011;DHT22;12217;50.792;4.372;2024-02-04T09:53:53;11.30;99.90
24011;DHT22;12217;50.792;4.372;2024-02-04T09:56:21;11.30;99.90
24011;DHT22;12217;50.792;4.372;2024-02-04T09:58:47;11.30;99.90
24011;DHT22;12217;50.792;4.372;2024-02-04T10:01:14;11.30;99.90
24011;DHT22;12217;50.792;4.372;2024-02-04T10:03:41;11.30;99.90
24011;DHT22;12217;50.792;4.372;2024-02-04T10:06:07;11.20;99.90
24011;DHT22;12217;50.792;4.372;2024-02-04T10:08:35;11.20;99.90
24011;DHT22;12217;50.792;4.372;2024-02-04T10:11:01;11.10;99.90
24011;DHT22;12217;50.792;4.372;2024-02-04T10:13:27;11.20;99.90
24011;DHT22;12217;50.792;4.372;2024-02-04T10:15:53;11.30;99.90
24011;DHT22;12217;50.792;4.372;2024-02-04T10:18:18;11.40;99.90
24011;DHT22;12217;50.792;4.372;2024-02-04T10:20:44;11.20;99.90
24011;DHT22;12217;50.792;4.372;2024-02-04T10:23:10;11.20;99.90
24011;DHT22;12217;50.792;4.372;2024-02-04T10:25:35;11.30;99.90
24011;DHT22;12217;50.792;4.372;2024-02-04T10:28:01;11.30;99.90
24011;DHT22;12217;50.792;4.372;2024-02-04T10:30:27;11.40;99.90
24011;DHT22;12217;50.792;4.372;2024-02-04T10:32:53;11.40;99.90
24011;DHT22;12217;50.792;4.372;2024-02-04T10:35:23;11.30;99.90
24011;DHT22;12217;50.792;4.372;2024-02-04T10:37:52;11.40;99.90
24011;DHT22;12217;50.792;4.372;2024-02-04T10:40:18;11.30;99.90
24011;DHT22;12217;50.792;4.372;2024-02-04T10:42:44;11.40;99.90
24011;DHT22;12217;50.792;4.372;2024-02-04T10:45:11;11.40;99.90
24011;DHT22;12217;50.792;4.372;2024-02-04T10:47:40;11.40;99.90
24011;DHT22;12217;50.792;4.372;2024-02-04T10:50:07;11.50;99.90
24011;DHT22;12217;50.792;4.372;2024-02-04T10:52:38;11.40;99.90
24011;DHT22;12217;50.792;4.372;2024-02-04T10:55:09;11.50;99.90
24011;DHT22;12217;50.792;4.372;2024-02-04T10:57:36;11.60;99.90
24011;DHT22;12217;50.792;4.372;2024-02-04T11:00:03;11.50;99.90
24011;DHT22;12217;50.792;4.372;2024-02-04T11:02:38;11.60;99.90
24011;DHT22;12217;50.792;4.372;2024-02-04T11:05:05;11.60;99.90
24011;DHT22;12217;50.792;4.372;2024-02-04T11:07:35;11.70;99.90
24011;DHT22;12217;50.792;4.372;2024-02-04T11:10:02;11.50;99.90
24011;DHT22;12217;50.792;4.372;2024-02-04T11:12:29;11.70;99.90
24011;DHT22;12217;50.792;4.372;2024-02-04T11:14:58;11.70;99.90
24011;DHT22;12217;50.792;4.372;2024-02-04T11:20:25;11.70;99.90
24011;DHT22;12217;50.792;4.372;2024-02-04T11:23:26;11.50;99.90
24011;DHT22;12217;50.792;4.372;2024-02-04T11:25:56;11.50;99.90
24011;DHT22;12217;50.792;4.372;2024-02-04T11:28:23;11.50;99.90
24011;DHT22;12217;50.792;4.372;2024-02-04T11:30:51;11.50;99.90
24011;DHT22;12217;50.792;4.372;2024-02-04T11:33:21;11.50;99.90
24011;DHT22;12217;50.792;4.372;2024-02-04T11:36:04;11.60;99.90
24011;DHT22;12217;50.792;4.372;2024-02-04T11:38:40;11.70;99.90
24011;DHT22;12217;50.792;4.372;2024-02-04T11:41:06;11.70;99.90
24011;DHT22;12217;50.792;4.372;2024-02-04T11:43:36;11.70;99.90
24011;DHT22;12217;50.792;4.372;2024-02-04T11:46:06;11.70;99.90
24011;DHT22;12217;50.792;4.372;2024-02-04T11:48:33;11.60;99.90
24011;DHT22;12217;50.792;4.372;2024-02-04T11:51:00;11.50;99.90
24011;DHT22;12217;50.792;4.372;2024-02-04T11:53:29;11.50;99.90
24011;DHT22;12217;50.792;4.372;2024-02-04T11:56:00;11.40;99.90
24011;DHT22;12217;50.792;4.372;2024-02-04T11:58:27;11.50;99.90
24011;DHT22;12217;50.792;4.372;2024-02-04T12:00:53;11.50;99.90
24011;DHT22;12217;50.792;4.372;2024-02-04T12:03:33;11.50;99.90
24011;DHT22;12217;50.792;4.372;2024-02-04T12:05:59;11.50;99.90
24011;DHT22;12217;50.792;4.372;2024-02-04T12:08:26;11.50;99.90
24011;DHT22;12217;50.792;4.372;2024-02-04T12:10:52;11.40;99.90
24011;DHT22;12217;50.792;4.372;2024-02-04T12:13:19;11.50;99.90
24011;DHT22;12217;50.792;4.372;2024-02-04T12:15:45;11.60;99.90
24011;DHT22;12217;50.792;4.372;2024-02-04T12:18:11;11.60;99.90
24011;DHT22;12217;50.792;4.372;2024-02-04T12:20:39;11.50;99.90
24011;DHT22;12217;50.792;4.372;2024-02-04T12:23:06;11.50;99.90
24011;DHT22;12217;50.792;4.372;2024-02-04T12:25:33;11.50;99.90
24011;DHT22;12217;50.792;4.372;2024-02-04T12:28:00;11.50;99.90
24011;DHT22;12217;50.792;4.372;2024-02-04T12:30:27;11.40;99.90
24011;DHT22;12217;50.792;4.372;2024-02-04T12:32:59;11.30;99.90
24011;DHT22;12217;50.792;4.372;2024-02-04T12:35:26;11.50;99.90
24011;DHT22;12217;50.792;4.372;2024-02-04T12:37:53;11.40;99.90
24011;DHT22;12217;50.792;4.372;2024-02-04T12:40:23;11.40;99.90
24011;DHT22;12217;50.792;4.372;2024-02-04T12:42:56;11.30;99.90
24011;DHT22;12217;50.792;4.372;2024-02-04T12:45:23;11.30;99.90
24011;DHT22;12217;50.792;4.372;2024-02-04T12:47:50;11.30;99.90
24011;DHT22;12217;50.792;4.372;2024-02-04T12:50:16;11.30;99.90
24011;DHT22;12217;50.792;4.372;2024-02-04T12:52:44;11.30;99.90
24011;DHT22;12217;50.792;4.372;2024-02-04T12:55:23;11.40;99.90
24011;DHT22;12217;50.792;4.372;2024-02-04T12:57:49;11.40;99.90
24011;DHT22;12217;50.792;4.372;2024-02-04T13:00:18;11.30;99.90
24011;DHT22;12217;50.792;4.372;2024-02-04T13:02:43;11.40;99.90
24011;DHT22;12217;50.792;4.372;2024-02-04T13:05:09;11.30;99.90
24011;DHT22;12217;50.792;4.372;2024-02-04T13:07:36;11.20;99.90
24011;DHT22;12217;50.792;4.372;2024-02-04T13:10:02;11.20;99.90
24011;DHT22;12217;50.792;4.372;2024-02-04T13:12:28;11.30;99.90
24011;DHT22;12217;50.792;4.372;2024-02-04T13:14:54;11.30;99.90
24011;DHT22;12217;50.792;4.372;2024-02-04T13:17:20;11.20;99.90
24011;DHT22;12217;50.792;4.372;2024-02-04T13:19:45;11.20;99.90
24011;DHT22;12217;50.792;4.372;2024-02-04T13:22:11;11.20;99.90
24011;DHT22;12217;50.792;4.372;2024-02-04T13:24:39;11.30;99.90
24011;DHT22;12217;50.792;4.372;2024-02-04T13:27:05;11.30;99.90
24011;DHT22;12217;50.792;4.372;2024-02-04T13:29:36;11.30;99.90
24011;DHT22;12217;50.792;4.372;2024-02-04T13:32:02;11.20;99.90
24011;DHT22;12217;50.792;4.372;2024-02-04T13:34:28;11.20;99.90
24011;DHT22;12217;50.792;4.372;2024-02-04T13:36:54;11.30;99.90
24011;DHT22;12217;50.792;4.372;2024-02-04T13:39:20;11.40;99.90
24011;DHT22;12217;50.792;4.372;2024-02-04T13:41:46;11.30;99.90
24011;DHT22;12217;50.792;4.372;2024-02-04T13:44:12;11.10;99.90
24011;DHT22;12217;50.792;4.372;2024-02-04T13:46:38;11.20;99.90
24011;DHT22;12217;50.792;4.372;2024-02-04T13:49:07;11.20;99.90
24011;DHT22;12217;50.792;4.372;2024-02-04T13:51:33;11.30;99.90
24011;DHT22;12217;50.792;4.372;2024-02-04T13:53:59;11.30;99.90
24011;DHT22;12217;50.792;4.372;2024-02-04T13:56:24;11.30;99.90
24011;DHT22;12217;50.792;4.372;2024-02-04T13:58:50;11.30;99.90
24011;DHT22;12217;50.792;4.372;2024-02-04T14:01:16;11.20;99.90
24011;DHT22;12217;50.792;4.372;2024-02-04T14:03:46;11.20;99.90
24011;DHT22;12217;50.792;4.372;2024-02-04T14:06:12;11.20;99.90
24011;DHT22;12217;50.792;4.372;2024-02-04T14:08:38;11.20;99.90
24011;DHT22;12217;50.792;4.372;2024-02-04T14:11:04;11.20;99.90
24011;DHT22;12217;50.792;4.372;2024-02-04T14:13:29;11.10;99.90
24011;DHT22;12217;50.792;4.372;2024-02-04T14:15:55;11.20;99.90
24011;DHT22;12217;50.792;4.372;2024-02-04T14:18:21;11.30;99.90
24011;DHT22;12217;50.792;4.372;2024-02-04T14:20:46;11.40;99.90
24011;DHT22;12217;50.792;4.372;2024-02-04T14:23:12;11.40;99.90
24011;DHT22;12217;50.792;4.372;2024-02-04T14:25:37;11.30;99.90
24011;DHT22;12217;50.792;4.372;2024-02-04T14:28:03;11.40;99.90
24011;DHT22;12217;50.792;4.372;2024-02-04T14:30:30;11.40;99.90
24011;DHT22;12217;50.792;4.372;2024-02-04T14:32:56;11.30;99.90
24011;DHT22;12217;50.792;4.372;2024-02-04T14:35:22;11.20;99.90
24011;DHT22;12217;50.792;4.372;2024-02-04T14:37:48;11.20;99.90
24011;DHT22;12217;50.792;4.372;2024-02-04T14:40:14;11.20;99.90
24011;DHT22;12217;50.792;4.372;2024-02-04T14:42:39;11.30;99.90
24011;DHT22;12217;50.792;4.372;2024-02-04T14:45:06;11.20;99.90
24011;DHT22;12217;50.792;4.372;2024-02-04T14:47:31;11.20;99.90
24011;DHT22;12217;50.792;4.372;2024-02-04T14:49:57;11.20;99.90
24011;DHT22;12217;50.792;4.372;2024-02-04T14:52:23;11.10;99.90
24011;DHT22;12217;50.792;4.372;2024-02-04T14:54:48;11.00;99.90
24011;DHT22;12217;50.792;4.372;2024-02-04T14:57:14;10.90;99.90
24011;DHT22;12217;50.792;4.372;2024-02-04T14:59:40;11.00;99.90
24011;DHT22;12217;50.792;4.372;2024-02-04T15:02:06;11.00;99.90
24011;DHT22;12217;50.792;4.372;2024-02-04T15:04:32;11.10;99.90
24011;DHT22;12217;50.792;4.372;2024-02-04T15:06:58;11.20;99.90
24011;DHT22;12217;50.792;4.372;2024-02-04T15:09:24;11.20;99.90
24011;DHT22;12217;50.792;4.372;2024-02-04T15:11:51;11.20;99.90
24011;DHT22;12217;50.792;4.372;2024-02-04T15:14:17;11.10;99.90
24011;DHT22;12217;50.792;4.372;2024-02-04T15:16:43;11.10;99.90
24011;DHT22;12217;50.792;4.372;2024-02-04T15:19:09;11.10;99.90
24011;DHT22;12217;50.792;4.372;2024-02-04T15:21:35;11.20;99.90
24011;DHT22;12217;50.792;4.372;2024-02-04T15:24:02;11.20;99.90
24011;DHT22;12217;50.792;4.372;2024-02-04T15:26:34;11.10;99.90
24011;DHT22;12217;50.792;4.372;2024-02-04T15:29:02;11.10;99.90
24011;DHT22;12217;50.792;4.372;2024-02-04T15:31:29;11.30;99.90
24011;DHT22;12217;50.792;4.372;2024-02-04T15:33:55;11.40;99.90